Aérodrome :
LOGIN :

S'inscrire | Disclaimer

   EN    FR    IT 

 










Légende :    VFR   VFR Marginal   IFR   IFR Intensif   IFR Très Intensif
Visi : 
Plafond : 
>= 8 km
>= 3000ft
5 à 8 km
1000 à 3000 ft
1500m à 5 km
500 à 1000 ft
800 à 1500m
200 à 500 ft
< 800m
< 200 ft
Symboles :   Orages  Brouillard  Fortes neiges  Fortes précipitations  Vent > 20 kt
SIGMETs :   Divers  Orages  Givrage  Turbulence  Onde Orograph.  Cendres Volcan.







- Altitude de l'aérodrome : 614 ft
- Code IATA : CRL


EBCI - Charleroi

DERNIER METAR :
  • 161750Z 34005KT 290V030 CAVOK 23/12 Q1013 NOSIG

METARs EXPIRÉS :
  • 161720Z 32007KT 280V010 CAVOK 23/12 Q1013 TEMPO 26015G26KT 4000 SHRA
  • 161650Z 30007G17KT 260V340 CAVOK 24/12 Q1013 TEMPO 26015G26KT 4000 SHRA
  • 161620Z 27009KT 230V310 CAVOK 25/11 Q1013 TEMPO 26015G26KT 4000 SHRA
  • 161550Z 36004KT 280V070 CAVOK 28/06 Q1012 NOSIG
  • 161520Z 05005KT 350V110 CAVOK 29/06 Q1012 NOSIG
  • 161450Z 06009KT 360V100 9999 FEW045 29/06 Q1012 NOSIG

TAF TAF EBCI
Valide du 16 à 18h jusqu'au 17 à 23h UTC


161700Z 1618/1723 28006KT CAVOK
PROB30 1618/1624 VRB15G25KT -TSRA
Pas de NOTAMs connus pour ce terrain.
2 SIGMETs publiés pour la FIR Brussels (EBBU) :
 
Annulation du SIGMET 01
EBBU SIGMET 02 VALID 161716/162116 EBBR
EBBU BRUSSELS FIR CNL SIGMET 01 VALID 161440/161840=
SIGMET 01  ANNULÉ :
Orages noyés dans la masse
EBBU SIGMET 01 VALID 161440/161840 EBBR
EBBU BRUSSELS FIR EMBD TS OBS W OF E04 TOP FL250 MOV E-NE 10KT INTSF=



MET'MAP, la Météo Aéronautique d'un coup d'oeil ! - Copyright ORBIFLY Décembre 2007 - Disclaimer

ORBIFLY MET'MAP TEAM :

Programmation & Développement : Alexandra Zaïnal
Conception & Développement : Baudouin d'Aumeries
Co-Programmation & Développement : Marc-Olivier Méhu
Soutien technique & logistique : Manuel Goepfert

Contact : metmap@orbifly.com




SOURCES & CREDITS :

   NOAA